ADDS METAR Data INFO
IDs: Format: Raw Decoded Include TAF

Data at: 1007 UTC 22 May 2018

KLUK 220953Z AUTO 20004KT 10SM BKN008 OVC055 20/20 A3003 RMK AO2 LTG DSNT S SLP165 T02000200 $
KLUK 220853Z AUTO 00000KT 8SM OVC007 20/20 A3003 RMK AO2 SLP163 60006 T02000200 56007 $
KLUK 220753Z AUTO 21004KT 10SM BKN006 OVC042 20/20 A3003 RMK AO2 RAB32E49 CIG 006V010 SLP164 P0000 T02000200 $
KLUK 220742Z AUTO 21003KT 10SM -RA BKN006 BKN042 OVC090 19/19 A3003 RMK AO2 RAB32 CIG 006V010 P0000 T01940194 $
KLUK 220721Z AUTO 00000KT 10SM FEW006 SCT060 OVC090 20/19 A3002 RMK AO2 T02000194 $
KLUK 220653Z AUTO 00000KT 10SM SCT065 BKN100 20/19 A3002 RMK AO2 RAE39 SLP160 P0006 T02000194 $
KLUK 220553Z AUTO 21005KT 4SM RA BR FEW010 BKN075 OVC095 20/20 A3005 RMK AO2 LTG DSNT E RAB09 SLP170 P0033 60135 T02000200 10261 20194 56004 $
KLUK 220549Z AUTO 22005KT 4SM RA BR FEW010 BKN090 OVC110 20/20 A3005 RMK AO2 LTG DSNT E RAB09 P0033 $
KLUK 220529Z AUTO 16009KT 3SM R21L/5000VP6000FT VCTS -RA BR FEW010 BKN044 OVC075 20/19 A3005 RMK AO2 LTG DSNT E AND SE RAB09 P0028 T02000194 $
KLUK 220527Z AUTO 16009KT 2SM R21L/4500VP6000FT -RA BR SCT017 BKN032 OVC075 20/20 A3005 RMK AO2 LTG DSNT E AND SE RAB09 P0027 T02000200 $
KLUK 220519Z AUTO 15009KT 1 1/4SM R21L/4500VP6000FT +RA BR FEW011 BKN021 OVC050 20/20 A3006 RMK AO2 LTG DSNT SE AND S RAB09 P0025 T02000200 $
KLUK 220515Z AUTO 21007KT 2SM +RA BR FEW011 BKN031 OVC050 20/20 A3007 RMK AO2 VIS 1V5 LTG DSNT SE AND S RAB09 P0013 T02000200 $
KLUK 220504Z AUTO 19007KT 8SM VCTS FEW009 SCT033 BKN050 21/20 A3007 RMK AO2 LTG DSNT SE-SW T02060200 $
KLUK 220453Z AUTO 00000KT 9SM FEW050 SCT110 19/19 A3005 RMK AO2 LTG DSNT SE AND SW SLP171 T01940194 403060178 $
KLUK 220353Z AUTO 00000KT 10SM SCT055 SCT070 BKN120 20/20 A3006 RMK AO2 LTG DSNT SE RAE08 SLP175 P0000 T02000200 $
KLUK 220253Z 08005KT 6SM -RA BR FEW014 SCT080 OVC110 21/20 A3007 RMK AO2 LTG DSNT NE AND E TSE0157B22E52 SLP178 TSE45 MOV E CB E P0017 60102 T02060200 50006 $
KLUK 220251Z 10004KT 7SM -TSRA SCT011 SCT085 OVC110 21/20 A3007 RMK AO2 LTG DSNT NE AND E TSE0157B22 LTG ICCCCG S TS S MOV E P0016 $
KLUK 220231Z 16008KT 4SM TSRA BR FEW009 BKN013 OVC080 21/20 A3008 RMK AO2 LTG DSNT NE-S TSE0157B22 LTG ICCCCG S TS S MOV E P0014 T02060200 $
KLUK 220222Z 15009KT 4SM TSRA BR SCT006 BKN065 OVC080CB 21/20 A3008 RMK AO2 LTG DSNT NE-S TSE0157B22 PRESRR P0011 T02060200 $
KLUK 220203Z 35005KT 4SM +RA BR FEW025 BKN070 OVC095 21/20 A3005 RMK AO2 LTG DSNT ALQDS TSE0157 P0004 T02060200 $
KLUK 220153Z 36007KT 5SM -TSRA BR SCT015 OVC095 21/21 A3005 RMK AO2 PK WND 28026/0120 WSHFT 0114 LTG DSNT ALQDS RAB0054 TSB0054 SLP171 TSE50 P0085 T02060206 $
KLUK 220149Z 36009KT 1 1/2SM -TSRA BR SCT015 BKN024 OVC090 20/20 A3005 RMK AO2 PK WND 28026/0120 WSHFT 0114 LTG DSNT ALQDS RAB0054 TSB0054 LTGICCCCG ALQDS TS OHD MOV E P0084 $
KLUK 220128Z 25012G26KT 2SM R21L/4000VP6000FT +TSRA BR FEW014 BKN028 OVC050CB 21/20 A3008 RMK AO2 PK WND 28026/0120 WSHFT 0114 LTG DSNT SE-SW RAB0054 TSB0054 PRESRR LTGICCCCG ALQDS TS OHD MOV E P0028 T02060200 $
KLUK 220100Z 31017G21KT 7SM -TSRA BKN055CB 25/19 A3003 RMK AO2 LTG DSNT S-NW RAB0054 TSB0054 PRESRR P0000 T02500189
KLUK 220053Z 35014KT 10SM SCT055 25/19 A3001 RMK AO2 LTG DSNT W AND NW SLP160 LTGICCC SW-NW TS W MOV E T02500194
KLUK 212353Z 00000KT 10SM CLR 27/22 A3000 RMK AO2 LTG DSNT N AND NW SLP155 T02670217 10306 20267 55000
KLUK 212253Z 19004KT 10SM CLR 28/20 A3000 RMK AO2 SLP154 T02830200
KLUK 212153Z 18007KT 10SM FEW050 30/19 A2999 RMK AO2 SLP152 T03000194
KLUK 212053Z 19007KT 10SM SCT060 30/19 A3000 RMK AO2 SLP154 T03000194 58028
KLUK 211953Z 22009KT 10SM SCT060 31/19 A3003 RMK AO2 SLP165 T03060189
KLUK 211853Z 18004KT 10SM FEW050 30/19 A3005 RMK AO2 SLP172 T03000194
KLUK 211753Z VRB04KT 10SM FEW050 29/21 A3008 RMK AO2 SLP183 T02890206 10294 20189 58018
KLUK 211653Z 17003KT 10SM FEW035 28/21 A3011 RMK AO2 SLP193 T02780211
KLUK 211553Z 04003KT 10SM CLR 26/21 A3012 RMK AO2 SLP197 T02610211
KLUK 211453Z 03004KT 10SM FEW043 24/20 A3014 RMK AO2 SLP202 T02390200 50000
KLUK 211353Z 02005KT 10SM CLR 22/19 A3015 RMK AO2 SLP206 T02220189
KLUK 211253Z 05007KT 10SM CLR 21/19 A3014 RMK AO2 SLP203 T02060189
KLUK 211153Z 04005KT 10SM CLR 19/18 A3014 RMK AO2 SLP202 T01890178 10189 20178 51014
KLUK 211053Z 05004KT 10SM CLR 19/18 A3012 RMK AO2 SLP196 T01890183 $
KLUK 210953Z AUTO 04003KT 8SM CLR 18/18 A3011 RMK AO2 SLP191 T01830183 $
KLUK 210853Z AUTO 04004KT 7SM CLR 18/18 A3010 RMK AO2 SLP186 T01830183 56002 $
KLUK 210753Z AUTO 05003KT 6SM BR CLR 18/18 A3010 RMK AO2 SLP186 T01780178 $
KLUK 210653Z AUTO 02003KT 8SM CLR 19/19 A3009 RMK AO2 SLP184 T01890189 $
KLUK 210553Z AUTO 05003KT 8SM CLR 19/19 A3010 RMK AO2 SLP188 T01890189 10239 20183 58001 $
KLUK 210453Z AUTO 00000KT 9SM OVC060 20/19 A3011 RMK AO2 SLP190 T02000194 403060167 $
KLUK 210353Z AUTO 00000KT 10SM CLR 19/19 A3011 RMK AO2 SLP191 T01890189 $
KLUK 210253Z VRB03KT 10SM CLR 20/19 A3010 RMK AO2 SLP190 T02000189 53005 $
KLUK 210153Z VRB04KT 10SM CLR 21/19 A3009 RMK AO2 SLP185 T02060189 $
KLUK 210053Z 04003KT 10SM CLR 22/19 A3009 RMK AO2 LTG DSNT SE SLP185 T02170189
KLUK 210002Z 04006KT 10SM FEW038 FEW070 23/19 A3009 RMK AO2 LTG DSNT E-SW T02330194
KLUK 202353Z 04007KT 10SM VCTS FEW040 SCT070 BKN090 24/19 A3009 RMK AO2 LTG DSNT ALQDS RAB30E53 PRESRR SLP185 P0000 60000 T02390194 10306 20239 53012
KLUK 202304Z 27007KT 8SM VCTS SCT065 BKN100CB 28/18 A3005 RMK AO2 LTG DSNT ALQDS CB W MOV E T02780183
KLUK 202253Z VRB04KT 10SM SCT090 29/18 A3005 RMK AO2 LTG DSNT W-NE SLP172 T02890178